Time;durP1;ratioP1;P1;durP2;ratioP2;P2;SDS_P1;SDS_P2;PMS_P1;PMS_P2;Temp;Humidity;BMP_temperature;BMP_pressure;BME280_temperature;BME280_humidity;BME280_pressure;Samples;Min_cycle;Max_cycle;Signal;HPM_P1;HPM_P2
2022/01/21 00:00:24;;;;;;;15.73;2.45;;;;;;;4.38;100.00;103451.50;5088589;28;20024;-78
2022/01/21 00:02:50;;;;;;;14.38;2.28;;;;;;;4.39;100.00;103447.75;5082507;28;20070;-78
2022/01/21 00:05:16;;;;;;;15.10;2.40;;;;;;;4.44;100.00;103449.94;5093495;28;20139;-75
2022/01/21 00:07:41;;;;;;;15.40;2.40;;;;;;;4.37;100.00;103452.50;5075981;28;20409;-78
2022/01/21 00:10:09;;;;;;;13.55;2.33;;;;;;;4.33;100.00;103460.16;5103163;28;20063;-79
2022/01/21 00:12:36;;;;;;;9.38;1.95;;;;;;;4.54;100.00;103459.56;5086964;28;20034;-78
2022/01/21 00:15:03;;;;;;;12.55;2.17;;;;;;;4.54;100.00;103456.00;5093904;28;20492;-78
2022/01/21 00:17:29;;;;;;;13.00;2.67;;;;;;;4.53;100.00;103463.31;5090398;28;20047;-77
2022/01/21 00:30:07;;;;;;;13.32;2.35;;;;;;;4.64;100.00;103463.91;5082264;28;20032;-77
2022/01/21 00:30:53;;;;;;;17.30;2.50;;;;;;;4.75;100.00;103467.06;5072860;28;20403;-76
2022/01/21 00:33:18;;;;;;;10.00;2.00;;;;;;;4.90;100.00;103460.88;5087544;28;20493;-76
2022/01/21 00:35:44;;;;;;;11.68;2.80;;;;;;;4.70;100.00;103465.94;5098628;28;20630;-77
2022/01/21 00:38:09;;;;;;;19.38;2.88;;;;;;;4.58;100.00;103465.50;5098290;28;21123;-77
2022/01/21 00:40:35;;;;;;;15.85;2.65;;;;;;;4.55;100.00;103468.56;5092735;28;20111;-78
2022/01/21 00:43:15;;;;;;;14.40;2.10;;;;;;;4.64;100.00;103467.50;5087548;28;20055;-78
2022/01/21 00:45:41;;;;;;;19.70;2.97;;;;;;;4.50;100.00;103471.81;5092491;28;20034;-77
2022/01/21 00:48:06;;;;;;;14.27;2.22;;;;;;;4.45;100.00;103478.81;5088266;28;20110;-78
2022/01/21 00:50:32;;;;;;;13.50;2.33;;;;;;;4.65;100.00;103477.34;5075706;28;20034;-76
2022/01/21 00:52:58;;;;;;;13.88;2.08;;;;;;;4.63;100.00;103471.25;5095628;28;20034;-76
2022/01/21 00:55:25;;;;;;;13.55;2.38;;;;;;;4.65;100.00;103477.34;5100134;28;20035;-77
2022/01/21 00:57:52;;;;;;;17.08;2.75;;;;;;;4.59;100.00;103472.59;5097346;28;20118;-77
2022/01/21 01:00:17;;;;;;;13.52;2.25;;;;;;;4.63;100.00;103476.69;5094397;28;20035;-77
2022/01/21 01:02:43;;;;;;;15.88;2.92;;;;;;;4.66;100.00;103479.03;5055265;28;20020;-77
2022/01/21 01:05:10;;;;;;;17.23;2.45;;;;;;;4.65;100.00;103474.63;5101473;28;20039;-78
2022/01/21 01:07:36;;;;;;;17.60;2.60;;;;;;;4.49;100.00;103477.41;5098404;28;20042;-76
2022/01/21 01:10:04;;;;;;;12.27;2.22;;;;;;;4.53;100.00;103482.31;5097991;28;20043;-75
2022/01/21 01:12:47;;;;;;;12.60;2.53;;;;;;;4.58;100.00;103481.78;5089763;28;20027;-77
2022/01/21 01:20:51;;;;;;;13.85;2.00;;;;;;;4.59;100.00;103473.47;5070819;28;20494;-78
2022/01/21 01:23:38;;;;;;;17.55;2.20;;;;;;;4.45;100.00;103470.66;5095918;28;20020;-77
2022/01/21 01:28:48;;;;;;;13.40;2.05;;;;;;;4.34;100.00;103475.44;5091318;28;20106;-78
2022/01/21 01:31:13;;;;;;;13.77;2.22;;;;;;;4.50;100.00;103479.13;5106671;28;20418;-77
2022/01/21 01:33:40;;;;;;;11.73;1.85;;;;;;;4.48;100.00;103478.47;5094169;28;20027;-79
2022/01/21 01:36:11;;;;;;;12.50;1.75;;;;;;;4.32;100.00;103473.94;5103727;28;20169;-80
2022/01/21 01:38:59;;;;;;;4.97;1.40;;;;;;;4.16;100.00;103472.94;5087270;28;20096;-82
2022/01/21 01:41:35;;;;;;;5.72;0.80;;;;;;;4.15;100.00;103484.84;5096024;28;20151;-79
2022/01/21 01:49:34;;;;;;;11.13;1.92;;;;;;;4.11;100.00;103482.66;5086576;28;20058;-79
2022/01/21 01:52:00;;;;;;;11.45;1.80;;;;;;;4.29;100.00;103477.00;5089136;28;20035;-78
2022/01/21 01:54:28;;;;;;;12.50;1.92;;;;;;;4.26;100.00;103472.75;5067474;28;20032;-78
2022/01/21 01:56:55;;;;;;;14.18;2.05;;;;;;;4.10;100.00;103461.94;5048908;28;20086;-77
2022/01/21 01:59:22;;;;;;;16.70;2.80;;;;;;;4.22;100.00;103466.81;5068093;28;20020;-77
2022/01/21 02:01:59;;;;;;;13.82;2.17;;;;;;;4.14;100.00;103463.28;5070822;28;20705;-78
2022/01/21 02:04:25;;;;;;;13.98;1.95;;;;;;;4.18;100.00;103468.22;5102866;28;20390;-77
2022/01/21 02:06:51;;;;;;;12.45;1.92;;;;;;;4.29;100.00;103457.97;5091456;28;20216;-78
2022/01/21 02:09:17;;;;;;;11.65;1.75;;;;;;;4.21;100.00;103458.84;5105050;28;20027;-78
2022/01/21 02:11:43;;;;;;;13.38;1.85;;;;;;;4.33;100.00;103467.44;5095463;28;20396;-77
2022/01/21 02:14:13;;;;;;;14.00;2.00;;;;;;;4.26;100.00;103467.31;5085510;28;20449;-77
2022/01/21 02:22:19;;;;;;;12.35;1.63;;;;;;;4.38;100.00;103465.91;5097890;28;20046;-76
2022/01/21 02:24:50;;;;;;;12.25;2.17;;;;;;;4.45;100.00;103473.38;5084326;28;20131;-78
2022/01/21 02:27:16;;;;;;;15.57;2.28;;;;;;;4.68;100.00;103468.81;5104627;28;20487;-75
2022/01/21 02:29:51;;;;;;;13.23;2.38;;;;;;;4.49;100.00;103463.84;5102378;28;20051;-76
2022/01/21 02:32:19;;;;;;;10.68;2.13;;;;;;;4.53;100.00;103465.19;5089413;28;20095;-79
2022/01/21 02:34:45;;;;;;;13.10;1.63;;;;;;;4.70;100.00;103476.81;5092501;28;20032;-76
2022/01/21 02:37:13;;;;;;;11.73;2.53;;;;;;;4.76;100.00;103476.94;5085510;28;20101;-78
2022/01/21 02:39:39;;;;;;;11.60;2.13;;;;;;;4.68;100.00;103471.53;5098151;28;20032;-78
2022/01/21 02:42:05;;;;;;;12.02;1.58;;;;;;;4.66;100.00;103473.59;5085574;28;20103;-77
2022/01/21 02:44:31;;;;;;;8.05;1.55;;;;;;;4.71;100.00;103484.78;5084927;28;20059;-78
2022/01/21 02:47:01;;;;;;;9.18;1.40;;;;;;;4.69;100.00;103478.69;5104209;28;20022;-77
2022/01/21 02:49:27;;;;;;;9.25;1.65;;;;;;;4.54;100.00;103472.28;5105113;28;20026;-79
2022/01/21 02:51:55;;;;;;;11.35;1.85;;;;;;;4.47;100.00;103471.31;5097891;28;20291;-79
2022/01/21 02:54:21;;;;;;;7.45;1.40;;;;;;;4.60;100.00;103471.59;5103059;28;20051;-77
2022/01/21 02:56:48;;;;;;;9.93;1.38;;;;;;;4.51;100.00;103467.22;5080567;28;20032;-77
2022/01/21 02:59:14;;;;;;;10.93;2.05;;;;;;;4.53;100.00;103467.91;5089581;28;20402;-76
2022/01/21 03:01:42;;;;;;;12.05;1.75;;;;;;;4.44;100.00;103460.81;5104113;28;20033;-76
2022/01/21 03:04:09;;;;;;;14.52;2.00;;;;;;;4.38;100.00;103448.78;5097840;28;20455;-76
2022/01/21 03:06:38;;;;;;;11.68;1.98;;;;;;;4.49;100.00;103450.25;5088181;28;20473;-78
2022/01/21 03:09:06;;;;;;;10.65;1.80;;;;;;;4.46;100.00;103459.63;5068384;28;20104;-77
2022/01/21 03:11:31;;;;;;;7.63;1.60;;;;;;;4.45;100.00;103457.06;5083428;28;20028;-77
2022/01/21 03:13:57;;;;;;;8.23;1.85;;;;;;;4.46;100.00;103459.63;5098382;28;20035;-75
2022/01/21 03:16:24;;;;;;;13.73;1.90;;;;;;;4.50;100.00;103454.66;5080050;28;20036;-76
2022/01/21 03:18:50;;;;;;;15.90;2.13;;;;;;;4.55;100.00;103463.13;5065666;28;20020;-77
2022/01/21 03:21:16;;;;;;;10.82;1.60;;;;;;;4.66;100.00;103465.44;5089930;28;20677;-77
2022/01/21 03:23:47;;;;;;;10.38;2.03;;;;;;;4.52;100.00;103474.34;5065703;28;20030;-76
2022/01/21 03:26:15;;;;;;;10.60;1.48;;;;;;;4.66;100.00;103467.34;5083133;28;20430;-76
2022/01/21 03:28:42;;;;;;;11.50;1.73;;;;;;;4.66;100.00;103459.19;5100557;28;20124;-77
2022/01/21 03:31:07;;;;;;;9.98;2.13;;;;;;;4.75;100.00;103453.50;5090144;28;20669;-78
2022/01/21 03:33:32;;;;;;;10.50;1.90;;;;;;;4.88;100.00;103452.91;5082961;28;20530;-77
2022/01/21 03:35:58;;;;;;;14.50;2.47;;;;;;;4.72;100.00;103453.00;5078089;28;20223;-78
2022/01/21 03:38:26;;;;;;;14.80;2.60;;;;;;;4.89;100.00;103453.78;5095962;28;20028;-77
2022/01/21 03:40:52;;;;;;;8.52;1.80;;;;;;;4.75;100.00;103458.09;5069781;28;20024;-77
2022/01/21 03:43:19;;;;;;;13.40;1.85;;;;;;;4.93;100.00;103452.38;5092983;28;20223;-77
2022/01/21 03:45:45;;;;;;;14.98;1.70;;;;;;;4.95;100.00;103466.63;5087695;28;20035;-77
2022/01/21 03:48:10;;;;;;;11.55;2.08;;;;;;;4.80;100.00;103461.13;5102533;28;20126;-78
2022/01/21 03:50:38;;;;;;;9.30;2.08;;;;;;;4.84;100.00;103465.19;5095597;28;20027;-78
2022/01/21 03:53:04;;;;;;;7.55;1.63;;;;;;;4.63;100.00;103471.25;5071076;28;20032;-77
2022/01/21 03:55:31;;;;;;;12.70;1.88;;;;;;;4.94;100.00;103467.66;5092124;28;20030;-76
2022/01/21 03:57:57;;;;;;;8.32;1.60;;;;;;;4.49;100.00;103469.25;5089624;28;20508;-78
2022/01/21 04:00:26;;;;;;;7.80;1.52;;;;;;;4.63;100.00;103473.97;5092713;28;20414;-77
2022/01/21 04:02:52;;;;;;;10.20;1.75;;;;;;;4.49;100.00;103482.84;5094674;28;20076;-76
2022/01/21 04:05:18;;;;;;;9.77;1.70;;;;;;;4.52;100.00;103479.78;5077845;28;20024;-78
2022/01/21 04:07:44;;;;;;;11.88;1.83;;;;;;;4.67;100.00;103485.31;5093822;28;20362;-75
2022/01/21 04:10:10;;;;;;;13.07;2.20;;;;;;;4.63;100.00;103487.53;5107270;28;20114;-75
2022/01/21 04:12:36;;;;;;;12.00;1.55;;;;;;;4.74;100.00;103489.88;5089151;28;20034;-76
2022/01/21 04:15:01;;;;;;;9.07;1.52;;;;;;;4.68;100.00;103482.41;5098045;28;20028;-75
2022/01/21 04:17:27;;;;;;;12.35;1.73;;;;;;;4.62;100.00;103474.13;5101417;28;20477;-76
2022/01/21 04:19:52;;;;;;;10.27;1.58;;;;;;;4.74;100.00;103467.28;5078869;28;20394;-75
2022/01/21 04:22:18;;;;;;;14.27;1.77;;;;;;;4.73;100.00;103476.44;5089388;28;20129;-78
2022/01/21 04:24:46;;;;;;;12.88;1.98;;;;;;;4.81;100.00;103478.28;5106348;28;20029;-76
2022/01/21 04:27:12;;;;;;;7.15;1.48;;;;;;;4.77;100.00;103473.22;5061654;28;20517;-75
2022/01/21 04:29:38;;;;;;;9.07;1.55;;;;;;;4.69;100.00;103480.53;5098014;28;20040;-76
2022/01/21 04:32:04;;;;;;;8.65;2.05;;;;;;;4.70;100.00;103477.63;5071365;28;20081;-76
2022/01/21 04:34:29;;;;;;;6.80;1.13;;;;;;;4.71;100.00;103484.78;5105064;28;20493;-77
2022/01/21 04:36:55;;;;;;;8.40;1.60;;;;;;;4.60;100.00;103487.91;5087723;28;20088;-76
2022/01/21 04:39:27;;;;;;;10.63;1.55;;;;;;;4.64;100.00;103489.25;5102332;28;20051;-76
2022/01/21 04:47:20;;;;;;;9.63;1.83;;;;;;;4.65;100.00;103480.06;5102594;28;20070;-78
2022/01/21 04:49:47;;;;;;;10.82;2.13;;;;;;;4.74;100.00;103484.44;5080360;28;20072;-77
2022/01/21 04:52:13;;;;;;;14.80;2.33;;;;;;;4.68;100.00;103485.13;5104482;28;20529;-77
2022/01/21 04:54:38;;;;;;;11.48;1.95;;;;;;;4.75;100.00;103485.28;5107649;27;20027;-77
2022/01/21 04:57:05;;;;;;;7.93;1.60;;;;;;;4.75;100.00;103482.56;5087983;28;20305;-76
2022/01/21 04:59:31;;;;;;;8.63;1.75;;;;;;;4.66;100.00;103484.47;5098368;28;20107;-77
2022/01/21 05:01:57;;;;;;;12.82;2.50;;;;;;;4.74;100.00;103479.00;5083234;28;20130;-76
2022/01/21 05:04:23;;;;;;;12.73;2.20;;;;;;;4.67;100.00;103483.44;5069748;28;20028;-76
2022/01/21 05:06:51;;;;;;;10.18;2.00;;;;;;;4.63;100.00;103484.81;5082806;28;20022;-77
2022/01/21 05:09:17;;;;;;;14.40;2.10;;;;;;;4.81;100.00;103483.72;5087574;28;20023;-78
2022/01/21 05:11:47;;;;;;;12.18;2.03;;;;;;;4.70;100.00;103487.69;5105752;28;20097;-78
2022/01/21 05:14:18;;;;;;;10.35;2.00;;;;;;;4.97;100.00;103486.34;5106423;28;20030;-77
2022/01/21 05:16:48;;;;;;;13.45;2.42;;;;;;;4.72;100.00;103481.06;5106327;28;20031;-76
2022/01/21 05:19:16;;;;;;;10.20;2.00;;;;;;;4.61;100.00;103495.03;5095577;28;20102;-75
2022/01/21 05:21:47;;;;;;;10.50;1.77;;;;;;;4.83;100.00;103484.38;5085535;28;20441;-77
2022/01/21 05:24:13;;;;;;;13.48;2.10;;;;;;;4.58;100.00;103479.09;5086059;28;20166;-77
2022/01/21 05:26:41;;;;;;;12.27;2.05;;;;;;;4.60;100.00;103479.75;5097215;28;20023;-75
2022/01/21 05:29:10;;;;;;;16.65;2.70;;;;;;;4.57;100.00;103466.50;5105298;28;20043;-76
2022/01/21 05:31:37;;;;;;;9.32;1.70;;;;;;;4.47;100.00;103477.59;5107993;28;20027;-76
2022/01/21 05:34:03;;;;;;;10.48;1.85;;;;;;;4.53;100.00;103476.06;5091885;28;20081;-76
2022/01/21 05:36:30;;;;;;;9.98;2.00;;;;;;;4.47;100.00;103476.75;5101440;28;20035;-75
2022/01/21 05:38:57;;;;;;;26.05;2.63;;;;;;;4.70;100.00;103474.09;5095558;28;20119;-76
2022/01/21 05:41:23;;;;;;;11.75;2.50;;;;;;;4.93;100.00;103466.81;5092379;28;20047;-77
2022/01/21 05:43:58;;;;;;;13.95;2.22;;;;;;;4.72;100.00;103474.75;5093797;28;20022;-77
2022/01/21 05:48:58;;;;;;;9.15;2.38;;;;;;;4.81;100.00;103465.53;5092158;28;20427;-78
2022/01/21 05:51:23;;;;;;;19.90;2.40;;;;;;;4.56;100.00;103467.56;5073106;28;20406;-76
2022/01/21 05:53:50;;;;;;;18.20;2.50;;;;;;;4.48;100.00;103467.59;5087709;28;20037;-76
2022/01/21 05:56:16;;;;;;;21.25;3.58;;;;;;;4.40;100.00;103463.03;5091675;28;20036;-76
2022/01/21 05:58:41;;;;;;;12.80;2.40;;;;;;;4.62;100.00;103472.25;5101549;28;20050;-76
2022/01/21 06:01:07;;;;;;;15.20;2.72;;;;;;;4.71;100.00;103473.91;5099004;28;20447;-76
2022/01/21 06:03:33;;;;;;;15.40;2.50;;;;;;;4.90;100.00;103477.19;5095800;28;20135;-75
2022/01/21 06:05:59;;;;;;;18.10;2.42;;;;;;;5.11;100.00;103471.94;5094758;28;20489;-76
2022/01/21 06:08:24;;;;;;;14.43;3.67;;;;;;;5.12;100.00;103476.38;5084708;28;20221;-75
2022/01/21 06:10:51;;;;;;;16.08;2.42;;;;;;;5.22;100.00;103483.47;5084135;28;20024;-76
2022/01/21 06:13:18;;;;;;;12.60;1.92;;;;;;;5.23;100.00;103482.41;5066880;28;20031;-75
2022/01/21 06:15:45;;;;;;;19.02;4.18;;;;;;;5.27;100.00;103481.03;5100547;28;20396;-77
2022/01/21 06:18:11;;;;;;;20.05;2.55;;;;;;;5.40;100.00;103481.25;5105396;28;20066;-76
2022/01/21 06:20:37;;;;;;;14.63;2.38;;;;;;;5.41;100.00;103473.94;5091296;28;20479;-76
2022/01/21 06:23:03;;;;;;;10.75;2.38;;;;;;;5.43;100.00;103472.75;5090936;28;20050;-79
2022/01/21 06:25:28;;;;;;;13.77;2.40;;;;;;;5.52;100.00;103479.78;5087106;28;20478;-77
2022/01/21 06:27:55;;;;;;;12.57;2.40;;;;;;;5.46;100.00;103493.28;5096537;28;20096;-76
2022/01/21 06:30:21;;;;;;;11.95;2.75;;;;;;;5.43;100.00;103477.34;5097649;28;20644;-81
2022/01/21 06:32:46;;;;;;;12.00;2.15;;;;;;;5.60;100.00;103478.88;5099214;28;20154;-74
2022/01/21 06:35:12;;;;;;;15.25;2.63;;;;;;;5.47;100.00;103492.25;5088167;27;20881;-75
2022/01/21 06:37:38;;;;;;;17.77;2.70;;;;;;;5.57;100.00;103492.84;5099987;28;20104;-75
2022/01/21 06:40:06;;;;;;;17.38;2.60;;;;;;;5.54;100.00;103493.22;5094096;28;20120;-76
2022/01/21 06:42:32;;;;;;;16.00;3.13;;;;;;;5.66;100.00;103501.81;5093092;28;20031;-77
2022/01/21 06:44:58;;;;;;;14.80;2.53;;;;;;;5.52;100.00;103504.28;5072464;28;20393;-79
2022/01/21 06:47:24;;;;;;;14.65;2.60;;;;;;;5.49;100.00;103518.28;5092904;28;20023;-77
2022/01/21 06:49:50;;;;;;;17.48;2.53;;;;;;;5.65;100.00;103505.53;5100316;28;20027;-77
2022/01/21 06:52:16;;;;;;;18.40;2.47;;;;;;;5.64;100.00;103509.28;5093915;28;20032;-77
2022/01/21 06:54:41;;;;;;;16.00;2.30;;;;;;;5.63;100.00;103507.63;5065672;28;20081;-77
2022/01/21 06:57:08;;;;;;;15.35;2.95;;;;;;;5.71;100.00;103502.94;5075843;28;20028;-75
2022/01/21 06:59:33;;;;;;;16.63;2.88;;;;;;;5.80;100.00;103500.13;5075464;28;20027;-77
2022/01/21 07:01:58;;;;;;;10.90;2.47;;;;;;;5.82;100.00;103493.47;5103169;28;20100;-76
2022/01/21 07:04:24;;;;;;;14.70;2.92;;;;;;;5.60;100.00;103495.19;5070493;28;20493;-80
2022/01/21 07:06:49;;;;;;;13.02;2.72;;;;;;;5.86;100.00;103500.22;5077265;28;20034;-77
2022/01/21 07:09:15;;;;;;;13.88;2.60;;;;;;;5.80;100.00;103500.13;5088558;28;20377;-77
2022/01/21 07:11:40;;;;;;;11.50;2.05;;;;;;;5.84;100.00;103496.84;5071893;28;20107;-77
2022/01/21 07:14:05;;;;;;;14.35;2.00;;;;;;;5.66;100.00;103499.09;5067956;28;20039;-77
2022/01/21 07:16:31;;;;;;;11.05;2.28;;;;;;;5.75;100.00;103503.41;5074637;28;20031;-75
2022/01/21 07:18:58;;;;;;;17.60;2.33;;;;;;;5.75;100.00;103500.69;5096564;28;20403;-76
2022/01/21 07:21:24;;;;;;;15.82;2.75;;;;;;;5.66;100.00;103509.97;5052727;28;20088;-76
2022/01/21 07:23:50;;;;;;;21.27;3.13;;;;;;;5.54;100.00;103525.88;5095711;28;20115;-76
2022/01/21 07:26:15;;;;;;;16.52;2.65;;;;;;;5.55;100.00;103529.44;5066445;28;20422;-76
2022/01/21 07:28:41;;;;;;;16.55;2.25;;;;;;;5.51;100.00;103524.38;5103935;28;20045;-75
2022/01/21 07:31:06;;;;;;;21.50;2.80;;;;;;;5.50;100.00;103530.84;5070043;28;20454;-77
2022/01/21 07:33:32;;;;;;;18.08;3.33;;;;;;;5.51;100.00;103527.09;5089883;28;20028;-75
2022/01/21 07:35:59;;;;;;;16.33;2.70;;;;;;;5.50;100.00;103543.59;5101467;28;20030;-83
2022/01/21 07:38:25;;;;;;;19.27;3.55;;;;;;;5.88;100.00;103536.28;5079691;28;20406;-75
2022/01/21 07:40:50;;;;;;;23.80;3.17;;;;;;;5.71;100.00;103537.47;5083494;28;20059;-74
2022/01/21 07:43:16;;;;;;;17.35;3.13;;;;;;;5.39;100.00;103542.13;5048922;28;20458;-77
2022/01/21 07:45:41;;;;;;;14.27;2.20;;;;;;;5.24;100.00;103533.06;5066474;28;20320;-76
2022/01/21 07:48:07;;;;;;;11.05;2.40;;;;;;;5.21;100.00;103528.00;5079198;28;20048;-76
2022/01/21 07:50:34;;;;;;;14.60;2.88;;;;;;;5.07;100.00;103526.91;5083556;28;20511;-76
2022/01/21 07:53:03;;;;;;;10.65;2.28;;;;;;;5.27;100.00;103522.66;5069572;28;20448;-76
2022/01/21 07:55:28;;;;;;;14.35;2.17;;;;;;;5.38;100.00;103529.56;5103806;28;20080;-76
2022/01/21 07:57:54;;;;;;;18.95;2.65;;;;;;;5.37;100.00;103533.31;5102281;28;20029;-75
2022/01/21 08:00:19;;;;;;;10.90;2.60;;;;;;;5.51;100.00;103532.53;5082543;28;20507;-76
2022/01/21 08:02:45;;;;;;;17.70;2.90;;;;;;;5.60;100.00;103527.88;5082556;28;20024;-77
2022/01/21 08:05:11;;;;;;;12.95;2.13;;;;;;;5.79;100.00;103521.06;5086574;28;20126;-76
2022/01/21 08:07:36;;;;;;;14.25;2.40;;;;;;;5.84;100.00;103525.97;5081903;28;20041;-76
2022/01/21 08:10:04;;;;;;;14.80;2.75;;;;;;;5.73;100.00;103518.25;5101061;28;20054;-76
2022/01/21 08:12:29;;;;;;;13.30;2.90;;;;;;;5.88;100.00;103530.84;5085184;28;20016;-77
2022/01/21 08:14:55;;;;;;;15.85;2.10;;;;;;;5.69;100.00;103534.94;5084736;28;20024;-76
2022/01/21 08:17:21;;;;;;;14.45;2.78;;;;;;;5.63;100.00;103543.84;5080886;28;20258;-76
2022/01/21 08:19:46;;;;;;;12.02;2.25;;;;;;;5.74;100.00;103547.13;5082129;28;20059;-76
2022/01/21 08:22:12;;;;;;;14.18;2.60;;;;;;;6.01;100.00;103552.03;5077777;28;20075;-76
2022/01/21 08:24:37;;;;;;;17.98;2.38;;;;;;;6.04;100.00;103539.94;5083197;28;20402;-77
2022/01/21 08:27:04;;;;;;;19.60;2.60;;;;;;;6.15;100.00;103542.22;5070999;28;20032;-78
2022/01/21 08:29:29;;;;;;;22.48;3.33;;;;;;;6.21;100.00;103541.44;5101641;28;20319;-78
2022/01/21 08:31:54;;;;;;;21.55;2.75;;;;;;;6.34;100.00;103534.50;5081610;28;20147;-77
2022/01/21 08:34:20;;;;;;;13.55;2.35;;;;;;;6.45;100.00;103542.22;5079996;28;20051;-78
2022/01/21 08:36:48;;;;;;;20.73;3.10;;;;;;;6.28;100.00;103535.25;5065428;28;20517;-78
2022/01/21 08:39:14;;;;;;;15.73;2.40;;;;;;;6.27;100.00;103528.97;5084733;28;20032;-77
2022/01/21 08:41:39;;;;;;;17.77;2.75;;;;;;;6.06;100.00;103533.25;5085669;28;20024;-76
2022/01/21 08:44:05;;;;;;;9.57;2.45;;;;;;;6.20;100.00;103534.31;5097923;28;20094;-76
2022/01/21 08:46:31;;;;;;;16.75;2.38;;;;;;;6.29;100.00;103524.16;5064331;28;20028;-75
2022/01/21 08:48:56;;;;;;;17.13;2.42;;;;;;;6.17;100.00;103523.78;5093746;28;20421;-76
2022/01/21 08:51:29;;;;;;;12.13;2.35;;;;;;;6.30;100.00;103528.59;5038177;28;20207;-76
2022/01/21 08:53:54;;;;;;;19.17;3.22;;;;;;;6.33;100.00;103527.34;5077670;28;20046;-76
2022/01/21 08:56:21;;;;;;;14.10;2.15;;;;;;;6.51;100.00;103533.28;5074562;28;20036;-76
2022/01/21 08:58:49;;;;;;;15.00;1.92;;;;;;;6.55;100.00;103531.03;5086630;28;20024;-78
2022/01/21 09:01:16;;;;;;;12.30;1.48;;;;;;;6.41;100.00;103533.56;5082655;28;20039;-76
2022/01/21 09:03:42;;;;;;;14.68;2.15;;;;;;;6.61;100.00;103533.84;5085548;28;20051;-76
2022/01/21 09:06:16;;;;;;;9.63;2.30;;;;;;;6.54;100.00;103538.38;5082773;28;20364;-75
2022/01/21 09:08:43;;;;;;;16.48;2.22;;;;;;;6.63;100.00;103539.94;5098979;28;20015;-76
2022/01/21 09:11:10;;;;;;;7.63;1.77;;;;;;;6.77;100.00;103542.84;5089194;28;20035;-76
2022/01/21 09:13:40;;;;;;;10.07;2.22;;;;;;;6.55;100.00;103536.47;5089654;28;20028;-77
2022/01/21 09:16:07;;;;;;;11.80;1.70;;;;;;;6.23;100.00;103533.94;5068765;28;20147;-76
2022/01/21 09:18:44;;;;;;;13.43;1.80;;;;;;;6.71;100.00;103538.16;5086086;28;20056;-76
2022/01/21 09:21:12;;;;;;;10.68;1.63;;;;;;;6.34;100.00;103527.16;5077555;28;20035;-78
2022/01/21 09:23:40;;;;;;;12.95;2.30;;;;;;;6.65;100.00;103525.28;5099471;28;20084;-78
2022/01/21 09:26:08;;;;;;;9.75;1.83;;;;;;;6.66;100.00;103529.69;5059335;28;20032;-77
2022/01/21 09:28:34;;;;;;;10.63;2.13;;;;;;;6.77;100.00;103524.63;5090009;28;20542;-76
2022/01/21 09:31:00;;;;;;;9.38;2.03;;;;;;;6.79;100.00;103529.88;5098722;28;20130;-76
2022/01/21 09:33:26;;;;;;;13.10;2.15;;;;;;;6.81;100.00;103528.63;5102946;28;20412;-76
2022/01/21 09:35:54;;;;;;;11.15;2.65;;;;;;;7.16;100.00;103522.53;5070342;28;20023;-76
2022/01/21 09:38:21;;;;;;;13.35;2.17;;;;;;;6.83;100.00;103523.00;5056146;28;20258;-75
2022/01/21 09:40:49;;;;;;;13.00;2.63;;;;;;;7.22;100.00;103523.66;5084896;28;20190;-77
2022/01/21 09:43:16;;;;;;;15.05;2.67;;;;;;;6.98;100.00;103526.53;5085544;28;20478;-76
2022/01/21 09:45:46;;;;;;;11.98;2.28;;;;;;;6.84;100.00;103535.59;5086046;28;20039;-78
2022/01/21 09:48:20;;;;;;;12.55;2.20;;;;;;;7.08;100.00;103530.81;5097547;28;20122;-77
2022/01/21 09:50:56;;;;;;;10.63;2.58;;;;;;;7.04;100.00;103541.28;5105196;28;20024;-77
2022/01/21 09:53:26;;;;;;;13.27;2.80;;;;;;;6.79;100.00;103543.50;5100043;28;20032;-76
2022/01/21 09:55:52;;;;;;;12.40;2.08;;;;;;;6.74;100.00;103548.66;5098742;28;20030;-76
2022/01/21 09:58:19;;;;;;;14.63;2.58;;;;;;;6.89;100.00;103544.03;5103085;28;20381;-77
2022/01/21 10:00:47;;;;;;;13.38;2.20;;;;;;;6.79;100.00;103543.50;5105175;28;20140;-77
2022/01/21 10:03:14;;;;;;;16.80;2.53;;;;;;;6.98;100.00;103545.63;5085721;28;20516;-78
2022/01/21 10:05:43;;;;;;;12.77;2.22;;;;;;;6.89;100.00;103552.22;5080125;28;20079;-77
2022/01/21 10:08:11;;;;;;;15.43;2.60;;;;;;;7.43;100.00;103544.63;5085349;28;20027;-77
2022/01/21 10:10:40;;;;;;;13.98;2.35;;;;;;;7.06;100.00;103550.13;5079590;28;20085;-77
2022/01/21 10:13:08;;;;;;;10.93;2.30;;;;;;;7.16;100.00;103549.81;5086219;28;20023;-78
2022/01/21 10:15:34;;;;;;;12.07;2.35;;;;;;;7.02;100.00;103553.41;5097690;28;20054;-77
2022/01/21 10:18:03;;;;;;;15.10;2.55;;;;;;;7.23;100.00;103558.94;5079733;28;20020;-77
2022/01/21 10:20:28;;;;;;;13.38;2.05;;;;;;;7.37;100.00;103557.19;5102903;28;20027;-78
2022/01/21 10:22:59;;;;;;;12.13;3.13;;;;;;;7.19;100.00;103563.06;5102535;28;20023;-76
2022/01/21 10:25:25;;;;;;;11.90;2.13;;;;;;;7.21;100.00;103552.78;5094529;28;20028;-77
2022/01/21 10:27:51;;;;;;;16.23;3.38;;;;;;;7.40;100.00;103555.97;5068529;28;20447;-77
2022/01/21 10:30:20;;;;;;;18.77;3.13;;;;;;;7.08;100.00;103542.56;5084176;28;20059;-77
2022/01/21 10:32:46;;;;;;;15.57;3.03;;;;;;;7.40;100.00;103551.34;5104125;28;20038;-78
2022/01/21 10:35:25;;;;;;;17.15;2.70;;;;;;;7.30;100.00;103542.63;5104461;28;20035;-76
2022/01/21 10:37:52;;;;;;;16.48;2.85;;;;;;;7.38;100.00;103547.09;5082913;28;20043;-76
2022/01/21 10:40:21;;;;;;;13.27;2.17;;;;;;;7.02;100.00;103547.97;5091174;28;20066;-75
2022/01/21 10:42:47;;;;;;;15.77;2.50;;;;;;;6.94;100.00;103547.03;5105032;28;20031;-77
2022/01/21 10:45:14;;;;;;;13.70;2.42;;;;;;;7.04;100.00;103554.94;5105060;28;20156;-76
2022/01/21 10:47:46;;;;;;;10.63;2.10;;;;;;;7.15;100.00;103556.31;5083927;28;20024;-76
2022/01/21 10:50:14;;;;;;;12.23;2.15;;;;;;;7.52;100.00;103551.66;5083925;28;20032;-77
2022/01/21 10:52:45;;;;;;;13.45;2.42;;;;;;;7.42;100.00;103541.06;5098134;28;20024;-77
2022/01/21 10:55:33;;;;;;;15.77;2.47;;;;;;;7.42;100.00;103548.41;5097224;28;20140;-76
2022/01/21 10:58:14;;;;;;;12.50;3.22;;;;;;;7.22;100.00;103543.59;5084734;28;20028;-75
2022/01/21 11:01:17;;;;;;;12.00;2.08;;;;;;;7.25;100.00;103536.91;5098283;28;20101;-76
2022/01/21 11:04:04;;;;;;;13.40;2.40;;;;;;;7.17;100.00;103537.88;5071918;28;20059;-77
2022/01/21 11:06:44;;;;;;;15.38;2.65;;;;;;;7.39;100.00;103540.59;5086468;28;20152;-77
2022/01/21 11:09:24;;;;;;;12.55;2.90;;;;;;;7.61;100.00;103530.50;5085689;28;20024;-77
2022/01/21 11:12:09;;;;;;;11.50;2.25;;;;;;;7.78;100.00;103529.19;5092022;28;20039;-77
2022/01/21 11:14:36;;;;;;;19.00;4.18;;;;;;;7.70;100.00;103540.25;5087803;28;20485;-78
2022/01/21 11:17:14;;;;;;;13.52;2.80;;;;;;;7.22;100.00;103534.56;5095539;28;20031;-76
2022/01/21 11:19:41;;;;;;;16.63;2.75;;;;;;;7.21;100.00;103535.59;5067936;28;20034;-75
2022/01/21 11:22:07;;;;;;;18.25;2.92;;;;;;;7.34;100.00;103536.56;5059905;28;20027;-78
2022/01/21 11:24:33;;;;;;;18.10;2.95;;;;;;;7.21;100.00;103539.16;5063709;28;20062;-76
2022/01/21 11:27:17;;;;;;;17.65;3.25;;;;;;;7.08;100.00;103544.47;5102436;28;20026;-76
2022/01/21 11:29:45;;;;;;;15.77;3.22;;;;;;;7.26;100.00;103555.78;5101241;28;20447;-76
2022/01/21 11:32:13;;;;;;;19.80;3.28;;;;;;;6.98;100.00;103553.81;5086050;28;20024;-77
2022/01/21 11:34:41;;;;;;;14.70;3.50;;;;;;;7.44;100.00;103546.31;5065156;28;20320;-77
2022/01/21 11:37:07;;;;;;;21.77;3.60;;;;;;;7.18;100.00;103543.13;5079144;28;20512;-76
2022/01/21 11:39:33;;;;;;;18.17;3.67;;;;;;;7.24;100.00;103548.84;5081840;28;20139;-77
2022/01/21 11:42:01;;;;;;;20.35;3.72;;;;;;;7.11;100.00;103534.00;5065702;28;20498;-76
2022/01/21 11:44:28;;;;;;;22.05;3.40;;;;;;;7.12;100.00;103535.72;5101816;28;20019;-78
2022/01/21 11:47:13;;;;;;;24.25;3.42;;;;;;;7.15;100.00;103529.88;5101238;28;20019;-76
2022/01/21 11:49:54;;;;;;;13.13;3.58;;;;;;;7.64;100.00;103531.00;5085575;28;20034;-77
2022/01/21 11:52:20;;;;;;;19.73;3.55;;;;;;;7.31;100.00;103526.06;5084344;28;20020;-76
2022/01/21 11:54:46;;;;;;;23.95;4.40;;;;;;;7.64;100.00;103521.94;5086037;28;20066;-77
2022/01/21 11:57:13;;;;;;;18.58;3.25;;;;;;;7.70;100.00;103526.63;5103746;28;20138;-77